sensor_id;sensor_type;location;lat;lon;timestamp;temperature;humidity
75217;HTU21D;63800;51.972;5.682;2023-04-07T00:00:23;8.59;116.14
75217;HTU21D;63800;51.972;5.682;2023-04-07T00:02:49;8.68;115.32
75217;HTU21D;63800;51.972;5.682;2023-04-07T00:05:15;8.60;116.01
75217;HTU21D;63800;51.972;5.682;2023-04-07T00:07:40;8.63;115.30
75217;HTU21D;63800;51.972;5.682;2023-04-07T00:10:06;8.66;115.14
75217;HTU21D;63800;51.972;5.682;2023-04-07T00:12:32;8.57;115.73
75217;HTU21D;63800;51.972;5.682;2023-04-07T00:14:58;8.57;115.56
75217;HTU21D;63800;51.972;5.682;2023-04-07T00:17:23;8.60;115.93
75217;HTU21D;63800;51.972;5.682;2023-04-07T00:19:49;8.51;116.47
75217;HTU21D;63800;51.972;5.682;2023-04-07T00:22:15;8.45;116.02
75217;HTU21D;63800;51.972;5.682;2023-04-07T00:24:40;8.46;116.57
75217;HTU21D;63800;51.972;5.682;2023-04-07T00:27:05;8.43;116.53
75217;HTU21D;63800;51.972;5.682;2023-04-07T00:29:31;8.45;115.62
75217;HTU21D;63800;51.972;5.682;2023-04-07T00:31:56;8.44;115.67
75217;HTU21D;63800;51.972;5.682;2023-04-07T00:34:22;8.48;115.37
75217;HTU21D;63800;51.972;5.682;2023-04-07T00:36:47;8.46;115.80
75217;HTU21D;63800;51.972;5.682;2023-04-07T00:39:17;8.33;116.06
75217;HTU21D;63800;51.972;5.682;2023-04-07T00:41:43;8.42;115.00
75217;HTU21D;63800;51.972;5.682;2023-04-07T00:44:09;8.55;113.59
75217;HTU21D;63800;51.972;5.682;2023-04-07T00:46:35;8.41;114.16
75217;HTU21D;63800;51.972;5.682;2023-04-07T00:49:00;8.41;114.14
75217;HTU21D;63800;51.972;5.682;2023-04-07T00:51:26;8.30;115.00
75217;HTU21D;63800;51.972;5.682;2023-04-07T00:53:51;8.36;113.96
75217;HTU21D;63800;51.972;5.682;2023-04-07T00:56:18;8.34;114.51
75217;HTU21D;63800;51.972;5.682;2023-04-07T00:58:43;8.35;114.01
75217;HTU21D;63800;51.972;5.682;2023-04-07T01:01:15;8.35;115.17
75217;HTU21D;63800;51.972;5.682;2023-04-07T01:03:50;8.31;115.02
75217;HTU21D;63800;51.972;5.682;2023-04-07T01:06:19;8.32;114.32
75217;HTU21D;63800;51.972;5.682;2023-04-07T01:08:56;8.33;113.22
75217;HTU21D;63800;51.972;5.682;2023-04-07T01:11:43;8.30;114.35
75217;HTU21D;63800;51.972;5.682;2023-04-07T01:14:12;8.27;114.38
75217;HTU21D;63800;51.972;5.682;2023-04-07T01:16:50;8.29;113.80
75217;HTU21D;63800;51.972;5.682;2023-04-07T01:19:32;8.20;113.24
75217;HTU21D;63800;51.972;5.682;2023-04-07T01:21:59;8.26;112.58
75217;HTU21D;63800;51.972;5.682;2023-04-07T01:24:46;8.18;114.12
75217;HTU21D;63800;51.972;5.682;2023-04-07T01:30:02;8.26;112.71
75217;HTU21D;63800;51.972;5.682;2023-04-07T01:32:29;8.23;112.26
75217;HTU21D;63800;51.972;5.682;2023-04-07T01:34:56;8.14;112.99
75217;HTU21D;63800;51.972;5.682;2023-04-07T01:37:24;8.09;112.41
75217;HTU21D;63800;51.972;5.682;2023-04-07T01:39:51;8.11;111.58
75217;HTU21D;63800;51.972;5.682;2023-04-07T01:42:18;8.21;112.30
75217;HTU21D;63800;51.972;5.682;2023-04-07T01:44:44;8.14;111.73
75217;HTU21D;63800;51.972;5.682;2023-04-07T01:47:11;8.09;111.45
75217;HTU21D;63800;51.972;5.682;2023-04-07T01:49:37;8.07;111.59
75217;HTU21D;63800;51.972;5.682;2023-04-07T01:52:05;8.12;110.33
75217;HTU21D;63800;51.972;5.682;2023-04-07T01:54:31;8.05;111.39
75217;HTU21D;63800;51.972;5.682;2023-04-07T01:56:57;8.07;111.77
75217;HTU21D;63800;51.972;5.682;2023-04-07T01:59:23;8.08;112.08
75217;HTU21D;63800;51.972;5.682;2023-04-07T02:01:49;8.07;112.01
75217;HTU21D;63800;51.972;5.682;2023-04-07T02:04:33;8.14;111.41
75217;HTU21D;63800;51.972;5.682;2023-04-07T02:07:07;8.08;112.29
75217;HTU21D;63800;51.972;5.682;2023-04-07T02:09:35;8.15;111.97
75217;HTU21D;63800;51.972;5.682;2023-04-07T02:12:03;8.08;112.21
75217;HTU21D;63800;51.972;5.682;2023-04-07T02:14:31;8.18;111.07
75217;HTU21D;63800;51.972;5.682;2023-04-07T02:16:58;8.03;112.29
75217;HTU21D;63800;51.972;5.682;2023-04-07T02:19:25;7.98;112.30
75217;HTU21D;63800;51.972;5.682;2023-04-07T02:21:52;8.06;112.22
75217;HTU21D;63800;51.972;5.682;2023-04-07T02:24:19;8.15;111.74
75217;HTU21D;63800;51.972;5.682;2023-04-07T02:26:46;8.16;111.12
75217;HTU21D;63800;51.972;5.682;2023-04-07T02:29:12;8.11;111.86
75217;HTU21D;63800;51.972;5.682;2023-04-07T02:31:38;8.20;111.20
75217;HTU21D;63800;51.972;5.682;2023-04-07T02:34:03;8.17;111.59
75217;HTU21D;63800;51.972;5.682;2023-04-07T02:36:28;8.09;111.47
75217;HTU21D;63800;51.972;5.682;2023-04-07T02:38:55;8.23;110.97
75217;HTU21D;63800;51.972;5.682;2023-04-07T02:41:20;8.29;110.30
75217;HTU21D;63800;51.972;5.682;2023-04-07T02:43:46;8.19;111.02
75217;HTU21D;63800;51.972;5.682;2023-04-07T02:46:12;8.26;111.29
75217;HTU21D;63800;51.972;5.682;2023-04-07T02:48:37;8.20;111.60
75217;HTU21D;63800;51.972;5.682;2023-04-07T02:51:03;8.23;111.16
75217;HTU21D;63800;51.972;5.682;2023-04-07T02:53:28;8.09;112.24
75217;HTU21D;63800;51.972;5.682;2023-04-07T02:55:53;8.13;113.18
75217;HTU21D;63800;51.972;5.682;2023-04-07T02:58:19;8.16;112.55
75217;HTU21D;63800;51.972;5.682;2023-04-07T03:00:47;8.23;111.85
75217;HTU21D;63800;51.972;5.682;2023-04-07T03:03:12;8.19;112.00
75217;HTU21D;63800;51.972;5.682;2023-04-07T03:05:38;8.08;113.34
75217;HTU21D;63800;51.972;5.682;2023-04-07T03:08:03;8.03;113.29
75217;HTU21D;63800;51.972;5.682;2023-04-07T03:10:29;8.18;112.39
75217;HTU21D;63800;51.972;5.682;2023-04-07T03:12:54;7.91;115.17
75217;HTU21D;63800;51.972;5.682;2023-04-07T03:15:19;8.06;114.12
75217;HTU21D;63800;51.972;5.682;2023-04-07T03:17:46;8.21;112.68
75217;HTU21D;63800;51.972;5.682;2023-04-07T03:20:11;8.06;114.24
75217;HTU21D;63800;51.972;5.682;2023-04-07T03:22:37;8.13;113.66
75217;HTU21D;63800;51.972;5.682;2023-04-07T03:25:02;8.14;113.26
75217;HTU21D;63800;51.972;5.682;2023-04-07T03:27:28;8.07;113.93
75217;HTU21D;63800;51.972;5.682;2023-04-07T03:29:53;8.12;113.06
75217;HTU21D;63800;51.972;5.682;2023-04-07T03:32:19;8.19;113.29
75217;HTU21D;63800;51.972;5.682;2023-04-07T03:34:44;8.26;112.47
75217;HTU21D;63800;51.972;5.682;2023-04-07T03:37:10;8.19;112.29
75217;HTU21D;63800;51.972;5.682;2023-04-07T03:39:35;8.23;111.42
75217;HTU21D;63800;51.972;5.682;2023-04-07T03:42:02;8.33;110.83
75217;HTU21D;63800;51.972;5.682;2023-04-07T03:44:27;8.31;110.70
75217;HTU21D;63800;51.972;5.682;2023-04-07T03:46:53;8.17;111.69
75217;HTU21D;63800;51.972;5.682;2023-04-07T03:49:18;8.18;112.25
75217;HTU21D;63800;51.972;5.682;2023-04-07T03:51:44;8.23;112.35
75217;HTU21D;63800;51.972;5.682;2023-04-07T03:54:09;8.12;112.28
75217;HTU21D;63800;51.972;5.682;2023-04-07T03:56:35;8.20;111.47
75217;HTU21D;63800;51.972;5.682;2023-04-07T03:59:01;8.11;112.43
75217;HTU21D;63800;51.972;5.682;2023-04-07T04:01:27;8.22;111.83
75217;HTU21D;63800;51.972;5.682;2023-04-07T04:03:52;8.14;112.42
75217;HTU21D;63800;51.972;5.682;2023-04-07T04:06:18;8.26;111.15
75217;HTU21D;63800;51.972;5.682;2023-04-07T04:08:43;8.16;111.74
75217;HTU21D;63800;51.972;5.682;2023-04-07T04:11:08;8.27;111.22
75217;HTU21D;63800;51.972;5.682;2023-04-07T04:13:34;8.20;112.07
75217;HTU21D;63800;51.972;5.682;2023-04-07T04:16:00;8.22;111.14
75217;HTU21D;63800;51.972;5.682;2023-04-07T04:18:26;8.20;111.46
75217;HTU21D;63800;51.972;5.682;2023-04-07T04:20:52;8.19;111.61
75217;HTU21D;63800;51.972;5.682;2023-04-07T04:23:17;8.11;112.48
75217;HTU21D;63800;51.972;5.682;2023-04-07T04:25:42;8.30;110.93
75217;HTU21D;63800;51.972;5.682;2023-04-07T04:28:08;8.14;112.06
75217;HTU21D;63800;51.972;5.682;2023-04-07T04:30:33;8.08;112.64
75217;HTU21D;63800;51.972;5.682;2023-04-07T04:32:59;8.13;112.13
75217;HTU21D;63800;51.972;5.682;2023-04-07T04:35:25;8.05;114.12
75217;HTU21D;63800;51.972;5.682;2023-04-07T04:37:51;8.00;113.94
75217;HTU21D;63800;51.972;5.682;2023-04-07T04:40:17;8.16;112.34
75217;HTU21D;63800;51.972;5.682;2023-04-07T04:42:43;8.09;112.63
75217;HTU21D;63800;51.972;5.682;2023-04-07T04:45:08;8.14;112.00
75217;HTU21D;63800;51.972;5.682;2023-04-07T04:47:34;8.15;112.03
75217;HTU21D;63800;51.972;5.682;2023-04-07T04:50:00;8.28;110.87
75217;HTU21D;63800;51.972;5.682;2023-04-07T04:52:25;8.14;112.19
75217;HTU21D;63800;51.972;5.682;2023-04-07T04:54:51;8.18;111.39
75217;HTU21D;63800;51.972;5.682;2023-04-07T04:57:17;8.15;111.55
75217;HTU21D;63800;51.972;5.682;2023-04-07T04:59:42;8.18;111.30
75217;HTU21D;63800;51.972;5.682;2023-04-07T05:02:07;8.31;110.53
75217;HTU21D;63800;51.972;5.682;2023-04-07T05:04:33;8.26;110.29
75217;HTU21D;63800;51.972;5.682;2023-04-07T05:06:59;8.09;111.73
75217;HTU21D;63800;51.972;5.682;2023-04-07T05:09:24;8.17;111.42
75217;HTU21D;63800;51.972;5.682;2023-04-07T05:11:50;8.24;110.76
75217;HTU21D;63800;51.972;5.682;2023-04-07T05:14:15;8.13;111.38
75217;HTU21D;63800;51.972;5.682;2023-04-07T05:16:41;8.29;109.46
75217;HTU21D;63800;51.972;5.682;2023-04-07T05:19:06;8.20;109.72
75217;HTU21D;63800;51.972;5.682;2023-04-07T05:21:32;8.07;111.20
75217;HTU21D;63800;51.972;5.682;2023-04-07T05:23:57;8.21;110.31
75217;HTU21D;63800;51.972;5.682;2023-04-07T05:26:22;8.22;109.74
75217;HTU21D;63800;51.972;5.682;2023-04-07T05:28:48;8.30;109.51
75217;HTU21D;63800;51.972;5.682;2023-04-07T05:31:13;8.23;109.14
75217;HTU21D;63800;51.972;5.682;2023-04-07T05:33:39;8.24;109.57
75217;HTU21D;63800;51.972;5.682;2023-04-07T05:36:04;8.27;108.78
75217;HTU21D;63800;51.972;5.682;2023-04-07T05:38:30;8.18;110.07
75217;HTU21D;63800;51.972;5.682;2023-04-07T05:40:55;8.22;109.75
75217;HTU21D;63800;51.972;5.682;2023-04-07T05:43:21;8.20;109.77
75217;HTU21D;63800;51.972;5.682;2023-04-07T05:45:46;8.18;110.09
75217;HTU21D;63800;51.972;5.682;2023-04-07T05:48:12;8.18;110.29
75217;HTU21D;63800;51.972;5.682;2023-04-07T05:50:37;8.11;111.11
75217;HTU21D;63800;51.972;5.682;2023-04-07T05:53:02;8.11;111.09
75217;HTU21D;63800;51.972;5.682;2023-04-07T05:55:28;8.06;111.77
75217;HTU21D;63800;51.972;5.682;2023-04-07T05:57:53;8.23;110.12
75217;HTU21D;63800;51.972;5.682;2023-04-07T06:00:19;8.13;112.01
75217;HTU21D;63800;51.972;5.682;2023-04-07T06:02:45;8.17;111.10
75217;HTU21D;63800;51.972;5.682;2023-04-07T06:05:10;8.24;110.28
75217;HTU21D;63800;51.972;5.682;2023-04-07T06:07:36;8.14;111.46
75217;HTU21D;63800;51.972;5.682;2023-04-07T06:10:02;8.14;112.51
75217;HTU21D;63800;51.972;5.682;2023-04-07T06:12:27;8.17;112.35
75217;HTU21D;63800;51.972;5.682;2023-04-07T06:14:54;8.21;111.87
75217;HTU21D;63800;51.972;5.682;2023-04-07T06:17:20;8.14;113.49
75217;HTU21D;63800;51.972;5.682;2023-04-07T06:19:46;8.13;113.93
75217;HTU21D;63800;51.972;5.682;2023-04-07T06:22:12;8.15;114.34
75217;HTU21D;63800;51.972;5.682;2023-04-07T06:24:37;8.18;114.47
75217;HTU21D;63800;51.972;5.682;2023-04-07T06:27:03;8.23;115.09
75217;HTU21D;63800;51.972;5.682;2023-04-07T06:29:29;8.30;113.78
75217;HTU21D;63800;51.972;5.682;2023-04-07T06:31:54;8.41;112.10
75217;HTU21D;63800;51.972;5.682;2023-04-07T06:34:20;8.28;114.12
75217;HTU21D;63800;51.972;5.682;2023-04-07T06:36:46;8.29;112.77
75217;HTU21D;63800;51.972;5.682;2023-04-07T06:39:11;8.50;112.90
75217;HTU21D;63800;51.972;5.682;2023-04-07T06:41:37;8.57;111.40
75217;HTU21D;63800;51.972;5.682;2023-04-07T06:44:03;8.56;111.33
75217;HTU21D;63800;51.972;5.682;2023-04-07T06:46:29;8.60;111.02
75217;HTU21D;63800;51.972;5.682;2023-04-07T06:48:55;8.60;109.75
75217;HTU21D;63800;51.972;5.682;2023-04-07T06:51:20;8.60;109.83
75217;HTU21D;63800;51.972;5.682;2023-04-07T06:53:46;8.64;109.28
75217;HTU21D;63800;51.972;5.682;2023-04-07T06:56:14;8.65;110.32
75217;HTU21D;63800;51.972;5.682;2023-04-07T06:58:39;8.61;108.62
75217;HTU21D;63800;51.972;5.682;2023-04-07T07:01:05;8.70;110.11
75217;HTU21D;63800;51.972;5.682;2023-04-07T07:03:31;8.65;108.29
75217;HTU21D;63800;51.972;5.682;2023-04-07T07:06:00;8.65;108.34
75217;HTU21D;63800;51.972;5.682;2023-04-07T07:08:27;8.53;108.29
75217;HTU21D;63800;51.972;5.682;2023-04-07T07:10:53;8.56;108.59
75217;HTU21D;63800;51.972;5.682;2023-04-07T07:13:20;8.48;111.25
75217;HTU21D;63800;51.972;5.682;2023-04-07T07:15:49;8.48;111.70
75217;HTU21D;63800;51.972;5.682;2023-04-07T07:18:17;8.52;110.08
75217;HTU21D;63800;51.972;5.682;2023-04-07T07:20:43;8.77;110.92
75217;HTU21D;63800;51.972;5.682;2023-04-07T07:23:09;8.64;109.06
75217;HTU21D;63800;51.972;5.682;2023-04-07T07:25:35;8.68;109.01
75217;HTU21D;63800;51.972;5.682;2023-04-07T07:28:00;8.76;107.66
75217;HTU21D;63800;51.972;5.682;2023-04-07T07:30:26;8.65;108.50
75217;HTU21D;63800;51.972;5.682;2023-04-07T07:32:52;8.77;108.04
75217;HTU21D;63800;51.972;5.682;2023-04-07T07:35:19;8.76;107.41
75217;HTU21D;63800;51.972;5.682;2023-04-07T07:37:45;8.83;107.59
75217;HTU21D;63800;51.972;5.682;2023-04-07T07:40:10;8.78;106.95
75217;HTU21D;63800;51.972;5.682;2023-04-07T07:42:36;8.78;106.97
75217;HTU21D;63800;51.972;5.682;2023-04-07T07:45:02;8.89;108.65
75217;HTU21D;63800;51.972;5.682;2023-04-07T07:47:28;9.05;105.85
75217;HTU21D;63800;51.972;5.682;2023-04-07T07:49:53;9.06;107.62
75217;HTU21D;63800;51.972;5.682;2023-04-07T07:52:19;9.10;105.71
75217;HTU21D;63800;51.972;5.682;2023-04-07T07:54:47;9.16;106.50
75217;HTU21D;63800;51.972;5.682;2023-04-07T07:57:13;9.07;105.33
75217;HTU21D;63800;51.972;5.682;2023-04-07T07:59:38;9.17;105.10
75217;HTU21D;63800;51.972;5.682;2023-04-07T08:02:07;9.31;104.80
75217;HTU21D;63800;51.972;5.682;2023-04-07T08:04:34;9.21;102.41
75217;HTU21D;63800;51.972;5.682;2023-04-07T08:07:00;9.18;103.70
75217;HTU21D;63800;51.972;5.682;2023-04-07T08:09:25;9.18;103.80
75217;HTU21D;63800;51.972;5.682;2023-04-07T08:11:51;9.06;104.26
75217;HTU21D;63800;51.972;5.682;2023-04-07T08:14:17;9.14;102.94
75217;HTU21D;63800;51.972;5.682;2023-04-07T08:16:42;9.20;103.77
75217;HTU21D;63800;51.972;5.682;2023-04-07T08:19:09;9.01;103.18
75217;HTU21D;63800;51.972;5.682;2023-04-07T08:21:35;9.18;103.52
75217;HTU21D;63800;51.972;5.682;2023-04-07T08:24:00;9.08;102.19
75217;HTU21D;63800;51.972;5.682;2023-04-07T08:26:26;9.22;101.14
75217;HTU21D;63800;51.972;5.682;2023-04-07T08:28:52;9.04;101.69
75217;HTU21D;63800;51.972;5.682;2023-04-07T08:31:18;9.04;102.18
75217;HTU21D;63800;51.972;5.682;2023-04-07T08:33:43;9.00;102.02
75217;HTU21D;63800;51.972;5.682;2023-04-07T08:36:09;9.11;101.28
75217;HTU21D;63800;51.972;5.682;2023-04-07T08:38:35;9.14;101.00
75217;HTU21D;63800;51.972;5.682;2023-04-07T08:41:07;8.97;102.70
75217;HTU21D;63800;51.972;5.682;2023-04-07T08:43:35;8.97;100.78
75217;HTU21D;63800;51.972;5.682;2023-04-07T08:46:02;9.25;101.09
75217;HTU21D;63800;51.972;5.682;2023-04-07T08:48:30;9.26;100.43
75217;HTU21D;63800;51.972;5.682;2023-04-07T08:51:03;9.25;98.18
75217;HTU21D;63800;51.972;5.682;2023-04-07T08:53:35;9.33;99.82
75217;HTU21D;63800;51.972;5.682;2023-04-07T08:56:03;9.42;99.69
75217;HTU21D;63800;51.972;5.682;2023-04-07T08:58:30;9.48;100.06
75217;HTU21D;63800;51.972;5.682;2023-04-07T09:00:56;9.59;98.26
75217;HTU21D;63800;51.972;5.682;2023-04-07T09:03:23;9.63;100.02
75217;HTU21D;63800;51.972;5.682;2023-04-07T09:05:50;9.62;97.11
75217;HTU21D;63800;51.972;5.682;2023-04-07T09:08:16;9.53;95.93
75217;HTU21D;63800;51.972;5.682;2023-04-07T09:10:41;9.57;96.45
75217;HTU21D;63800;51.972;5.682;2023-04-07T09:13:07;9.62;96.82
75217;HTU21D;63800;51.972;5.682;2023-04-07T09:15:32;9.71;96.82
75217;HTU21D;63800;51.972;5.682;2023-04-07T09:17:58;9.62;96.03
75217;HTU21D;63800;51.972;5.682;2023-04-07T09:20:24;9.54;95.10
75217;HTU21D;63800;51.972;5.682;2023-04-07T09:22:50;9.48;94.68
75217;HTU21D;63800;51.972;5.682;2023-04-07T09:25:17;9.52;97.50
75217;HTU21D;63800;51.972;5.682;2023-04-07T09:28:03;9.42;94.79
75217;HTU21D;63800;51.972;5.682;2023-04-07T09:30:31;9.47;94.41
75217;HTU21D;63800;51.972;5.682;2023-04-07T09:32:57;9.52;96.83
75217;HTU21D;63800;51.972;5.682;2023-04-07T09:35:23;9.57;95.20
75217;HTU21D;63800;51.972;5.682;2023-04-07T09:38:03;9.56;94.47
75217;HTU21D;63800;51.972;5.682;2023-04-07T09:40:29;9.53;92.92
75217;HTU21D;63800;51.972;5.682;2023-04-07T09:42:54;9.54;91.92
75217;HTU21D;63800;51.972;5.682;2023-04-07T09:45:25;9.54;92.04
75217;HTU21D;63800;51.972;5.682;2023-04-07T09:47:52;9.51;92.05
75217;HTU21D;63800;51.972;5.682;2023-04-07T09:50:30;9.57;92.14
75217;HTU21D;63800;51.972;5.682;2023-04-07T09:52:57;9.61;92.75
75217;HTU21D;63800;51.972;5.682;2023-04-07T09:55:23;9.76;90.98
75217;HTU21D;63800;51.972;5.682;2023-04-07T09:57:49;9.80;91.53
75217;HTU21D;63800;51.972;5.682;2023-04-07T10:00:15;9.78;92.56
75217;HTU21D;63800;51.972;5.682;2023-04-07T10:02:42;9.81;93.01
75217;HTU21D;63800;51.972;5.682;2023-04-07T10:05:09;9.57;90.48
75217;HTU21D;63800;51.972;5.682;2023-04-07T10:07:34;9.65;90.87
75217;HTU21D;63800;51.972;5.682;2023-04-07T10:10:00;9.60;91.79
75217;HTU21D;63800;51.972;5.682;2023-04-07T10:12:26;9.68;91.78
75217;HTU21D;63800;51.972;5.682;2023-04-07T10:14:53;9.56;91.17
75217;HTU21D;63800;51.972;5.682;2023-04-07T10:17:19;9.44;91.58
75217;HTU21D;63800;51.972;5.682;2023-04-07T10:19:47;9.54;91.80
75217;HTU21D;63800;51.972;5.682;2023-04-07T10:22:13;9.59;89.86
75217;HTU21D;63800;51.972;5.682;2023-04-07T10:27:18;9.71;90.77
75217;HTU21D;63800;51.972;5.682;2023-04-07T10:29:46;9.72;93.15
75217;HTU21D;63800;51.972;5.682;2023-04-07T10:32:13;9.71;92.35
75217;HTU21D;63800;51.972;5.682;2023-04-07T10:37:15;9.66;91.50
75217;HTU21D;63800;51.972;5.682;2023-04-07T10:39:42;9.68;92.37
75217;HTU21D;63800;51.972;5.682;2023-04-07T10:42:45;9.72;90.57
75217;HTU21D;63800;51.972;5.682;2023-04-07T10:45:12;9.78;91.92
75217;HTU21D;63800;51.972;5.682;2023-04-07T10:50:27;9.67;90.31
75217;HTU21D;63800;51.972;5.682;2023-04-07T10:53:11;9.59;91.54
75217;HTU21D;63800;51.972;5.682;2023-04-07T10:55:40;9.75;91.21
75217;HTU21D;63800;51.972;5.682;2023-04-07T11:00:37;9.74;92.91
75217;HTU21D;63800;51.972;5.682;2023-04-07T11:03:12;9.60;91.32
75217;HTU21D;63800;51.972;5.682;2023-04-07T11:05:39;9.59;90.63
75217;HTU21D;63800;51.972;5.682;2023-04-07T11:08:04;9.66;91.96
75217;HTU21D;63800;51.972;5.682;2023-04-07T11:10:31;9.61;90.71
75217;HTU21D;63800;51.972;5.682;2023-04-07T11:13:07;9.74;91.00
75217;HTU21D;63800;51.972;5.682;2023-04-07T11:15:36;9.56;90.33
75217;HTU21D;63800;51.972;5.682;2023-04-07T11:20:49;9.79;88.91
75217;HTU21D;63800;51.972;5.682;2023-04-07T11:23:16;9.79;89.53
75217;HTU21D;63800;51.972;5.682;2023-04-07T11:25:44;9.83;88.90
75217;HTU21D;63800;51.972;5.682;2023-04-07T11:28:12;9.85;88.60
75217;HTU21D;63800;51.972;5.682;2023-04-07T11:30:38;9.78;90.75
75217;HTU21D;63800;51.972;5.682;2023-04-07T11:33:08;9.77;90.18
75217;HTU21D;63800;51.972;5.682;2023-04-07T11:35:34;9.69;89.78
75217;HTU21D;63800;51.972;5.682;2023-04-07T11:38:00;9.71;88.35
75217;HTU21D;63800;51.972;5.682;2023-04-07T11:40:35;9.81;87.25
75217;HTU21D;63800;51.972;5.682;2023-04-07T11:43:02;9.85;88.05
75217;HTU21D;63800;51.972;5.682;2023-04-07T11:45:27;10.00;87.63
75217;HTU21D;63800;51.972;5.682;2023-04-07T11:47:53;9.96;86.80
75217;HTU21D;63800;51.972;5.682;2023-04-07T11:50:40;10.03;87.05
75217;HTU21D;63800;51.972;5.682;2023-04-07T11:53:07;10.15;86.38
75217;HTU21D;63800;51.972;5.682;2023-04-07T11:55:32;10.13;85.84
75217;HTU21D;63800;51.972;5.682;2023-04-07T11:58:05;10.19;85.75
75217;HTU21D;63800;51.972;5.682;2023-04-07T12:00:34;9.99;86.00
75217;HTU21D;63800;51.972;5.682;2023-04-07T12:03:08;9.94;86.38
75217;HTU21D;63800;51.972;5.682;2023-04-07T12:05:43;9.99;86.06
75217;HTU21D;63800;51.972;5.682;2023-04-07T12:08:08;9.97;88.08
75217;HTU21D;63800;51.972;5.682;2023-04-07T12:10:34;9.72;86.38
75217;HTU21D;63800;51.972;5.682;2023-04-07T12:12:59;9.94;85.52
75217;HTU21D;63800;51.972;5.682;2023-04-07T12:15:26;9.82;87.25
75217;HTU21D;63800;51.972;5.682;2023-04-07T12:17:52;9.91;87.26
75217;HTU21D;63800;51.972;5.682;2023-04-07T12:20:17;9.95;87.15
75217;HTU21D;63800;51.972;5.682;2023-04-07T12:22:42;10.03;86.21
75217;HTU21D;63800;51.972;5.682;2023-04-07T12:25:08;10.09;85.90
75217;HTU21D;63800;51.972;5.682;2023-04-07T12:27:34;10.04;86.45
75217;HTU21D;63800;51.972;5.682;2023-04-07T12:29:59;10.00;86.85
75217;HTU21D;63800;51.972;5.682;2023-04-07T12:32:25;10.06;86.96
75217;HTU21D;63800;51.972;5.682;2023-04-07T12:34:51;10.01;84.89
75217;HTU21D;63800;51.972;5.682;2023-04-07T12:37:16;10.06;84.64
75217;HTU21D;63800;51.972;5.682;2023-04-07T12:39:42;10.01;85.42
75217;HTU21D;63800;51.972;5.682;2023-04-07T12:42:07;9.95;86.24
75217;HTU21D;63800;51.972;5.682;2023-04-07T12:44:36;10.04;85.58
75217;HTU21D;63800;51.972;5.682;2023-04-07T12:47:02;10.11;86.33
75217;HTU21D;63800;51.972;5.682;2023-04-07T12:49:27;10.16;85.81
75217;HTU21D;63800;51.972;5.682;2023-04-07T12:51:53;10.12;86.74
75217;HTU21D;63800;51.972;5.682;2023-04-07T12:54:18;10.00;86.93
75217;HTU21D;63800;51.972;5.682;2023-04-07T12:56:44;9.94;86.51
75217;HTU21D;63800;51.972;5.682;2023-04-07T12:59:10;10.14;86.16
75217;HTU21D;63800;51.972;5.682;2023-04-07T13:01:35;10.06;86.46
75217;HTU21D;63800;51.972;5.682;2023-04-07T13:04:01;10.01;86.45
75217;HTU21D;63800;51.972;5.682;2023-04-07T13:06:27;9.92;85.27
75217;HTU21D;63800;51.972;5.682;2023-04-07T13:08:52;10.09;85.09
75217;HTU21D;63800;51.972;5.682;2023-04-07T13:11:18;10.06;85.61
75217;HTU21D;63800;51.972;5.682;2023-04-07T13:13:44;10.13;87.17
75217;HTU21D;63800;51.972;5.682;2023-04-07T13:16:10;10.12;86.46
75217;HTU21D;63800;51.972;5.682;2023-04-07T13:18:35;10.20;85.49
75217;HTU21D;63800;51.972;5.682;2023-04-07T13:21:01;10.15;85.67
75217;HTU21D;63800;51.972;5.682;2023-04-07T13:23:26;10.15;86.56
75217;HTU21D;63800;51.972;5.682;2023-04-07T13:25:52;10.15;85.54
75217;HTU21D;63800;51.972;5.682;2023-04-07T13:28:17;10.12;85.21
75217;HTU21D;63800;51.972;5.682;2023-04-07T13:30:45;10.05;86.06
75217;HTU21D;63800;51.972;5.682;2023-04-07T13:33:11;10.07;85.93
75217;HTU21D;63800;51.972;5.682;2023-04-07T13:35:36;10.26;84.73
75217;HTU21D;63800;51.972;5.682;2023-04-07T13:38:02;10.30;84.13
75217;HTU21D;63800;51.972;5.682;2023-04-07T13:40:28;10.35;85.16
75217;HTU21D;63800;51.972;5.682;2023-04-07T13:42:54;10.35;85.10
75217;HTU21D;63800;51.972;5.682;2023-04-07T13:45:19;10.25;85.26
75217;HTU21D;63800;51.972;5.682;2023-04-07T13:47:45;10.31;83.89
75217;HTU21D;63800;51.972;5.682;2023-04-07T13:50:10;10.28;84.84
75217;HTU21D;63800;51.972;5.682;2023-04-07T13:52:36;10.40;82.53
75217;HTU21D;63800;51.972;5.682;2023-04-07T13:55:02;10.46;82.55
75217;HTU21D;63800;51.972;5.682;2023-04-07T13:57:29;10.69;81.55
75217;HTU21D;63800;51.972;5.682;2023-04-07T13:59:55;10.58;81.62
75217;HTU21D;63800;51.972;5.682;2023-04-07T14:02:20;10.52;81.83
75217;HTU21D;63800;51.972;5.682;2023-04-07T14:04:46;10.67;82.53
75217;HTU21D;63800;51.972;5.682;2023-04-07T14:07:12;10.74;82.90
75217;HTU21D;63800;51.972;5.682;2023-04-07T14:09:37;10.82;83.31
75217;HTU21D;63800;51.972;5.682;2023-04-07T14:12:03;10.84;80.84
75217;HTU21D;63800;51.972;5.682;2023-04-07T14:14:29;10.74;83.70
75217;HTU21D;63800;51.972;5.682;2023-04-07T14:16:55;10.62;81.03
75217;HTU21D;63800;51.972;5.682;2023-04-07T14:19:22;10.57;82.30
75217;HTU21D;63800;51.972;5.682;2023-04-07T14:21:51;10.73;81.86
75217;HTU21D;63800;51.972;5.682;2023-04-07T14:24:17;10.83;83.29
75217;HTU21D;63800;51.972;5.682;2023-04-07T14:26:44;10.70;83.26
75217;HTU21D;63800;51.972;5.682;2023-04-07T14:29:13;10.70;82.89
75217;HTU21D;63800;51.972;5.682;2023-04-07T14:31:39;10.79;82.75
75217;HTU21D;63800;51.972;5.682;2023-04-07T14:34:05;10.67;81.91
75217;HTU21D;63800;51.972;5.682;2023-04-07T14:36:32;10.50;82.26
75217;HTU21D;63800;51.972;5.682;2023-04-07T14:38:58;10.63;81.94
75217;HTU21D;63800;51.972;5.682;2023-04-07T14:41:24;10.63;81.68
75217;HTU21D;63800;51.972;5.682;2023-04-07T14:43:49;10.50;82.23
75217;HTU21D;63800;51.972;5.682;2023-04-07T14:46:23;10.68;82.84
75217;HTU21D;63800;51.972;5.682;2023-04-07T14:48:50;10.86;81.40
75217;HTU21D;63800;51.972;5.682;2023-04-07T14:51:18;10.70;81.62
75217;HTU21D;63800;51.972;5.682;2023-04-07T14:53:44;10.64;82.75
75217;HTU21D;63800;51.972;5.682;2023-04-07T14:56:17;10.71;81.73
75217;HTU21D;63800;51.972;5.682;2023-04-07T14:58:43;10.66;82.31
75217;HTU21D;63800;51.972;5.682;2023-04-07T15:01:08;10.58;83.10
75217;HTU21D;63800;51.972;5.682;2023-04-07T15:03:34;10.56;84.15
75217;HTU21D;63800;51.972;5.682;2023-04-07T15:05:59;10.55;83.72
75217;HTU21D;63800;51.972;5.682;2023-04-07T15:08:25;10.48;83.70
75217;HTU21D;63800;51.972;5.682;2023-04-07T15:10:50;10.40;82.78
75217;HTU21D;63800;51.972;5.682;2023-04-07T15:13:16;10.40;83.00
75217;HTU21D;63800;51.972;5.682;2023-04-07T15:15:41;10.34;83.24
75217;HTU21D;63800;51.972;5.682;2023-04-07T15:18:06;10.38;83.74
75217;HTU21D;63800;51.972;5.682;2023-04-07T15:20:32;10.36;83.43
75217;HTU21D;63800;51.972;5.682;2023-04-07T15:22:58;10.44;82.92
75217;HTU21D;63800;51.972;5.682;2023-04-07T15:25:26;10.37;83.10
75217;HTU21D;63800;51.972;5.682;2023-04-07T15:27:51;10.31;83.97
75217;HTU21D;63800;51.972;5.682;2023-04-07T15:30:17;10.20;85.72
75217;HTU21D;63800;51.972;5.682;2023-04-07T15:32:56;10.20;85.60